Terminal Aerodrome Forecast
Issued by NWS Wilmington, OH

Current Version | Previous Version | Text Only | Print | Product List | Glossary Off
Versions: 1 2 3 4 5 6 7 8 9 10 11 12 13 14 15 16 17 18 19 20 21

606
FTUS41 KILN 040541
TAFCVG
TAF
KCVG 040541Z 0406/0512 27012KT P6SM SCT025 OVC035
     FM040700 27010KT P6SM OVC025
     FM041800 28008KT P6SM BKN025
     FM042000 29007KT P6SM SCT035
     FM050000 30005KT P6SM SKC
     FM051000 22004KT P6SM SKC=

USA.gov is the U.S. government's official web portal to all federal, state and local government web resources and services.